sensor_id;sensor_type;location;lat;lon;timestamp;P1;durP1;ratioP1;P2;durP2;ratioP2
18364;SDS011;9309;52.126;11.616;2023-04-23T00:00:37;5.53;;;5.07;;
18364;SDS011;9309;52.126;11.616;2023-04-23T00:03:06;5.67;;;5.13;;
18364;SDS011;9309;52.126;11.616;2023-04-23T00:05:35;11.30;;;6.37;;
18364;SDS011;9309;52.126;11.616;2023-04-23T00:08:02;9.13;;;6.70;;
18364;SDS011;9309;52.126;11.616;2023-04-23T00:10:30;11.60;;;6.57;;
18364;SDS011;9309;52.126;11.616;2023-04-23T00:12:58;7.73;;;6.03;;
18364;SDS011;9309;52.126;11.616;2023-04-23T00:15:27;6.97;;;5.10;;
18364;SDS011;9309;52.126;11.616;2023-04-23T00:17:54;6.07;;;5.47;;
18364;SDS011;9309;52.126;11.616;2023-04-23T00:20:21;8.43;;;5.40;;
18364;SDS011;9309;52.126;11.616;2023-04-23T00:22:48;6.47;;;5.60;;
18364;SDS011;9309;52.126;11.616;2023-04-23T00:25:15;9.40;;;5.50;;
18364;SDS011;9309;52.126;11.616;2023-04-23T00:27:42;11.47;;;5.80;;
18364;SDS011;9309;52.126;11.616;2023-04-23T00:30:09;11.67;;;5.40;;
18364;SDS011;9309;52.126;11.616;2023-04-23T00:32:38;8.93;;;6.00;;
18364;SDS011;9309;52.126;11.616;2023-04-23T00:35:05;7.10;;;6.03;;
18364;SDS011;9309;52.126;11.616;2023-04-23T00:37:32;11.17;;;5.57;;
18364;SDS011;9309;52.126;11.616;2023-04-23T00:39:59;7.10;;;5.23;;
18364;SDS011;9309;52.126;11.616;2023-04-23T00:42:28;10.03;;;5.87;;
18364;SDS011;9309;52.126;11.616;2023-04-23T00:44:55;6.13;;;5.50;;
18364;SDS011;9309;52.126;11.616;2023-04-23T00:47:22;8.50;;;5.57;;
18364;SDS011;9309;52.126;11.616;2023-04-23T00:49:51;7.30;;;5.30;;
18364;SDS011;9309;52.126;11.616;2023-04-23T00:52:20;9.47;;;5.30;;
18364;SDS011;9309;52.126;11.616;2023-04-23T00:54:47;6.43;;;4.73;;
18364;SDS011;9309;52.126;11.616;2023-04-23T00:57:14;7.37;;;5.57;;
18364;SDS011;9309;52.126;11.616;2023-04-23T00:59:41;8.20;;;5.43;;
18364;SDS011;9309;52.126;11.616;2023-04-23T01:02:09;7.23;;;5.73;;
18364;SDS011;9309;52.126;11.616;2023-04-23T01:04:38;6.63;;;5.17;;
18364;SDS011;9309;52.126;11.616;2023-04-23T01:07:09;8.13;;;5.17;;
18364;SDS011;9309;52.126;11.616;2023-04-23T01:09:37;8.97;;;6.00;;
18364;SDS011;9309;52.126;11.616;2023-04-23T01:12:05;7.70;;;5.93;;
18364;SDS011;9309;52.126;11.616;2023-04-23T01:14:32;7.67;;;6.30;;
18364;SDS011;9309;52.126;11.616;2023-04-23T01:16:59;6.77;;;5.40;;
18364;SDS011;9309;52.126;11.616;2023-04-23T01:19:27;8.80;;;5.33;;
18364;SDS011;9309;52.126;11.616;2023-04-23T01:21:54;6.00;;;5.50;;
18364;SDS011;9309;52.126;11.616;2023-04-23T01:24:26;8.60;;;5.77;;
18364;SDS011;9309;52.126;11.616;2023-04-23T01:26:55;7.37;;;5.43;;
18364;SDS011;9309;52.126;11.616;2023-04-23T01:29:23;7.47;;;5.70;;
18364;SDS011;9309;52.126;11.616;2023-04-23T01:31:50;8.53;;;5.77;;
18364;SDS011;9309;52.126;11.616;2023-04-23T01:34:19;7.13;;;6.33;;
18364;SDS011;9309;52.126;11.616;2023-04-23T01:36:48;11.40;;;6.00;;
18364;SDS011;9309;52.126;11.616;2023-04-23T01:39:16;8.60;;;6.50;;
18364;SDS011;9309;52.126;11.616;2023-04-23T01:41:44;9.37;;;6.33;;
18364;SDS011;9309;52.126;11.616;2023-04-23T01:44:12;9.00;;;6.47;;
18364;SDS011;9309;52.126;11.616;2023-04-23T01:46:39;10.83;;;8.40;;
18364;SDS011;9309;52.126;11.616;2023-04-23T01:49:05;8.27;;;7.23;;
18364;SDS011;9309;52.126;11.616;2023-04-23T01:51:33;9.20;;;8.23;;
18364;SDS011;9309;52.126;11.616;2023-04-23T01:54:00;9.27;;;7.80;;
18364;SDS011;9309;52.126;11.616;2023-04-23T01:56:28;10.97;;;8.63;;
18364;SDS011;9309;52.126;11.616;2023-04-23T01:58:58;12.30;;;8.43;;
18364;SDS011;9309;52.126;11.616;2023-04-23T02:01:30;12.30;;;9.30;;
18364;SDS011;9309;52.126;11.616;2023-04-23T02:04:07;11.93;;;9.40;;
18364;SDS011;9309;52.126;11.616;2023-04-23T02:06:34;11.30;;;9.47;;
18364;SDS011;9309;52.126;11.616;2023-04-23T02:09:01;15.00;;;9.10;;
18364;SDS011;9309;52.126;11.616;2023-04-23T02:11:27;9.97;;;8.80;;
18364;SDS011;9309;52.126;11.616;2023-04-23T02:13:54;17.07;;;9.40;;
18364;SDS011;9309;52.126;11.616;2023-04-23T02:16:22;13.73;;;9.07;;
18364;SDS011;9309;52.126;11.616;2023-04-23T02:18:50;15.13;;;9.17;;
18364;SDS011;9309;52.126;11.616;2023-04-23T02:21:17;14.63;;;8.93;;
18364;SDS011;9309;52.126;11.616;2023-04-23T02:23:44;13.27;;;9.83;;
18364;SDS011;9309;52.126;11.616;2023-04-23T02:26:10;13.53;;;10.07;;
18364;SDS011;9309;52.126;11.616;2023-04-23T02:28:37;15.57;;;10.07;;
18364;SDS011;9309;52.126;11.616;2023-04-23T02:31:04;14.47;;;9.93;;
18364;SDS011;9309;52.126;11.616;2023-04-23T02:33:32;13.60;;;10.10;;
18364;SDS011;9309;52.126;11.616;2023-04-23T02:35:59;14.67;;;9.70;;
18364;SDS011;9309;52.126;11.616;2023-04-23T02:38:26;14.10;;;10.10;;
18364;SDS011;9309;52.126;11.616;2023-04-23T02:40:53;13.37;;;10.07;;
18364;SDS011;9309;52.126;11.616;2023-04-23T02:43:19;15.30;;;10.03;;
18364;SDS011;9309;52.126;11.616;2023-04-23T02:45:46;16.37;;;9.90;;
18364;SDS011;9309;52.126;11.616;2023-04-23T02:48:12;14.77;;;10.17;;
18364;SDS011;9309;52.126;11.616;2023-04-23T02:50:40;13.73;;;9.63;;
18364;SDS011;9309;52.126;11.616;2023-04-23T02:53:07;12.57;;;9.97;;
18364;SDS011;9309;52.126;11.616;2023-04-23T02:55:34;12.93;;;10.40;;
18364;SDS011;9309;52.126;11.616;2023-04-23T02:58:00;12.73;;;10.70;;
18364;SDS011;9309;52.126;11.616;2023-04-23T03:00:28;14.63;;;10.57;;
18364;SDS011;9309;52.126;11.616;2023-04-23T03:02:55;13.20;;;9.80;;
18364;SDS011;9309;52.126;11.616;2023-04-23T03:05:22;13.03;;;10.90;;
18364;SDS011;9309;52.126;11.616;2023-04-23T03:07:50;14.10;;;10.23;;
18364;SDS011;9309;52.126;11.616;2023-04-23T03:10:16;16.97;;;11.40;;
18364;SDS011;9309;52.126;11.616;2023-04-23T03:12:43;16.60;;;11.37;;
18364;SDS011;9309;52.126;11.616;2023-04-23T03:15:10;14.07;;;11.60;;
18364;SDS011;9309;52.126;11.616;2023-04-23T03:17:37;16.40;;;11.03;;
18364;SDS011;9309;52.126;11.616;2023-04-23T03:20:05;16.10;;;11.07;;
18364;SDS011;9309;52.126;11.616;2023-04-23T03:22:35;15.53;;;11.50;;
18364;SDS011;9309;52.126;11.616;2023-04-23T03:25:04;14.90;;;12.07;;
18364;SDS011;9309;52.126;11.616;2023-04-23T03:27:31;14.03;;;11.80;;
18364;SDS011;9309;52.126;11.616;2023-04-23T03:29:58;17.60;;;11.27;;
18364;SDS011;9309;52.126;11.616;2023-04-23T03:32:25;17.03;;;11.60;;
18364;SDS011;9309;52.126;11.616;2023-04-23T03:34:51;16.13;;;11.70;;
18364;SDS011;9309;52.126;11.616;2023-04-23T03:37:20;13.53;;;10.20;;
18364;SDS011;9309;52.126;11.616;2023-04-23T03:39:47;16.23;;;10.73;;
18364;SDS011;9309;52.126;11.616;2023-04-23T03:42:16;12.37;;;9.90;;
18364;SDS011;9309;52.126;11.616;2023-04-23T03:44:43;15.37;;;11.13;;
18364;SDS011;9309;52.126;11.616;2023-04-23T03:47:10;16.20;;;11.40;;
18364;SDS011;9309;52.126;11.616;2023-04-23T03:49:36;18.27;;;12.00;;
18364;SDS011;9309;52.126;11.616;2023-04-23T03:52:04;16.67;;;11.17;;
18364;SDS011;9309;52.126;11.616;2023-04-23T03:54:33;17.47;;;11.37;;
18364;SDS011;9309;52.126;11.616;2023-04-23T03:57:03;18.67;;;12.00;;
18364;SDS011;9309;52.126;11.616;2023-04-23T03:59:38;16.70;;;11.63;;
18364;SDS011;9309;52.126;11.616;2023-04-23T04:02:06;14.23;;;10.93;;
18364;SDS011;9309;52.126;11.616;2023-04-23T04:04:33;24.57;;;12.10;;
18364;SDS011;9309;52.126;11.616;2023-04-23T04:07:00;15.57;;;11.67;;
18364;SDS011;9309;52.126;11.616;2023-04-23T04:09:27;14.80;;;11.60;;
18364;SDS011;9309;52.126;11.616;2023-04-23T04:11:59;14.07;;;11.40;;
18364;SDS011;9309;52.126;11.616;2023-04-23T04:14:25;14.57;;;11.93;;
18364;SDS011;9309;52.126;11.616;2023-04-23T04:16:53;16.57;;;11.63;;
18364;SDS011;9309;52.126;11.616;2023-04-23T04:19:21;18.70;;;12.20;;
18364;SDS011;9309;52.126;11.616;2023-04-23T04:21:47;15.60;;;11.57;;
18364;SDS011;9309;52.126;11.616;2023-04-23T04:24:15;22.37;;;12.10;;
18364;SDS011;9309;52.126;11.616;2023-04-23T04:26:42;18.30;;;12.57;;
18364;SDS011;9309;52.126;11.616;2023-04-23T04:29:09;19.33;;;12.83;;
18364;SDS011;9309;52.126;11.616;2023-04-23T04:31:36;18.57;;;13.10;;
18364;SDS011;9309;52.126;11.616;2023-04-23T04:34:04;15.67;;;12.20;;
18364;SDS011;9309;52.126;11.616;2023-04-23T04:36:33;18.17;;;11.90;;
18364;SDS011;9309;52.126;11.616;2023-04-23T04:38:59;16.23;;;11.97;;
18364;SDS011;9309;52.126;11.616;2023-04-23T04:41:27;15.67;;;11.83;;
18364;SDS011;9309;52.126;11.616;2023-04-23T04:43:54;15.20;;;11.73;;
18364;SDS011;9309;52.126;11.616;2023-04-23T04:46:22;16.50;;;11.40;;
18364;SDS011;9309;52.126;11.616;2023-04-23T04:48:50;15.53;;;11.67;;
18364;SDS011;9309;52.126;11.616;2023-04-23T04:51:18;12.17;;;10.27;;
18364;SDS011;9309;52.126;11.616;2023-04-23T04:53:45;15.20;;;10.23;;
18364;SDS011;9309;52.126;11.616;2023-04-23T04:56:11;11.70;;;9.40;;
18364;SDS011;9309;52.126;11.616;2023-04-23T04:58:38;13.00;;;9.23;;
18364;SDS011;9309;52.126;11.616;2023-04-23T05:01:05;15.03;;;9.57;;
18364;SDS011;9309;52.126;11.616;2023-04-23T05:03:31;12.13;;;9.10;;
18364;SDS011;9309;52.126;11.616;2023-04-23T05:05:58;11.73;;;9.33;;
18364;SDS011;9309;52.126;11.616;2023-04-23T05:08:26;13.03;;;9.47;;
18364;SDS011;9309;52.126;11.616;2023-04-23T05:10:53;11.47;;;9.40;;
18364;SDS011;9309;52.126;11.616;2023-04-23T05:13:20;10.80;;;9.20;;
18364;SDS011;9309;52.126;11.616;2023-04-23T05:15:47;10.50;;;9.07;;
18364;SDS011;9309;52.126;11.616;2023-04-23T05:18:14;11.87;;;9.83;;
18364;SDS011;9309;52.126;11.616;2023-04-23T05:20:41;11.87;;;9.23;;
18364;SDS011;9309;52.126;11.616;2023-04-23T05:23:07;9.83;;;8.80;;
18364;SDS011;9309;52.126;11.616;2023-04-23T05:25:35;12.37;;;10.40;;
18364;SDS011;9309;52.126;11.616;2023-04-23T05:28:02;14.90;;;8.90;;
18364;SDS011;9309;52.126;11.616;2023-04-23T05:30:29;10.00;;;8.90;;
18364;SDS011;9309;52.126;11.616;2023-04-23T05:32:56;11.10;;;8.83;;
18364;SDS011;9309;52.126;11.616;2023-04-23T05:35:22;11.40;;;9.03;;
18364;SDS011;9309;52.126;11.616;2023-04-23T05:37:49;12.67;;;8.77;;
18364;SDS011;9309;52.126;11.616;2023-04-23T05:40:16;14.93;;;9.20;;
18364;SDS011;9309;52.126;11.616;2023-04-23T05:42:44;10.10;;;9.03;;
18364;SDS011;9309;52.126;11.616;2023-04-23T05:45:11;12.13;;;8.63;;
18364;SDS011;9309;52.126;11.616;2023-04-23T05:47:37;12.37;;;9.13;;
18364;SDS011;9309;52.126;11.616;2023-04-23T05:50:05;10.73;;;9.63;;
18364;SDS011;9309;52.126;11.616;2023-04-23T05:52:32;11.60;;;10.40;;
18364;SDS011;9309;52.126;11.616;2023-04-23T05:55:01;12.63;;;9.80;;
18364;SDS011;9309;52.126;11.616;2023-04-23T05:57:28;13.10;;;9.70;;
18364;SDS011;9309;52.126;11.616;2023-04-23T05:59:56;13.10;;;10.10;;
18364;SDS011;9309;52.126;11.616;2023-04-23T06:02:23;16.07;;;10.07;;
18364;SDS011;9309;52.126;11.616;2023-04-23T06:04:50;12.20;;;10.07;;
18364;SDS011;9309;52.126;11.616;2023-04-23T06:07:16;11.23;;;9.53;;
18364;SDS011;9309;52.126;11.616;2023-04-23T06:09:43;12.87;;;10.37;;
18364;SDS011;9309;52.126;11.616;2023-04-23T06:12:09;15.27;;;10.90;;
18364;SDS011;9309;52.126;11.616;2023-04-23T06:14:36;15.33;;;10.47;;
18364;SDS011;9309;52.126;11.616;2023-04-23T06:17:04;21.00;;;11.63;;
18364;SDS011;9309;52.126;11.616;2023-04-23T06:19:31;11.50;;;10.30;;
18364;SDS011;9309;52.126;11.616;2023-04-23T06:21:57;15.37;;;11.03;;
18364;SDS011;9309;52.126;11.616;2023-04-23T06:24:24;16.27;;;12.20;;
18364;SDS011;9309;52.126;11.616;2023-04-23T06:26:51;20.00;;;12.90;;
18364;SDS011;9309;52.126;11.616;2023-04-23T06:29:19;18.13;;;13.93;;
18364;SDS011;9309;52.126;11.616;2023-04-23T06:32:01;20.23;;;13.90;;
18364;SDS011;9309;52.126;11.616;2023-04-23T06:34:30;26.60;;;15.87;;
18364;SDS011;9309;52.126;11.616;2023-04-23T06:36:57;24.97;;;15.93;;
18364;SDS011;9309;52.126;11.616;2023-04-23T06:39:23;25.23;;;15.60;;
18364;SDS011;9309;52.126;11.616;2023-04-23T06:41:50;28.20;;;15.77;;
18364;SDS011;9309;52.126;11.616;2023-04-23T06:44:22;29.43;;;16.30;;
18364;SDS011;9309;52.126;11.616;2023-04-23T06:46:52;27.50;;;17.20;;
18364;SDS011;9309;52.126;11.616;2023-04-23T06:49:19;31.63;;;18.93;;
18364;SDS011;9309;52.126;11.616;2023-04-23T06:51:47;33.10;;;19.37;;
18364;SDS011;9309;52.126;11.616;2023-04-23T06:54:13;35.20;;;20.80;;
18364;SDS011;9309;52.126;11.616;2023-04-23T06:56:40;40.00;;;21.57;;
18364;SDS011;9309;52.126;11.616;2023-04-23T06:59:06;37.90;;;21.13;;
18364;SDS011;9309;52.126;11.616;2023-04-23T07:01:40;43.87;;;23.23;;
18364;SDS011;9309;52.126;11.616;2023-04-23T07:04:07;42.93;;;22.57;;
18364;SDS011;9309;52.126;11.616;2023-04-23T07:06:34;42.10;;;22.80;;
18364;SDS011;9309;52.126;11.616;2023-04-23T07:09:02;47.50;;;26.30;;
18364;SDS011;9309;52.126;11.616;2023-04-23T07:11:30;49.67;;;26.83;;
18364;SDS011;9309;52.126;11.616;2023-04-23T07:13:58;55.60;;;26.97;;
18364;SDS011;9309;52.126;11.616;2023-04-23T07:16:25;57.33;;;27.67;;
18364;SDS011;9309;52.126;11.616;2023-04-23T07:18:56;56.13;;;27.97;;
18364;SDS011;9309;52.126;11.616;2023-04-23T07:21:22;57.67;;;28.00;;
18364;SDS011;9309;52.126;11.616;2023-04-23T07:23:51;57.87;;;28.23;;
18364;SDS011;9309;52.126;11.616;2023-04-23T07:26:19;56.27;;;27.57;;
18364;SDS011;9309;52.126;11.616;2023-04-23T07:28:46;63.43;;;28.27;;
18364;SDS011;9309;52.126;11.616;2023-04-23T07:31:13;54.07;;;28.07;;
18364;SDS011;9309;52.126;11.616;2023-04-23T07:33:40;61.43;;;29.37;;
18364;SDS011;9309;52.126;11.616;2023-04-23T07:36:07;56.63;;;28.97;;
18364;SDS011;9309;52.126;11.616;2023-04-23T07:38:33;58.57;;;29.40;;
18364;SDS011;9309;52.126;11.616;2023-04-23T07:41:00;61.23;;;29.77;;
18364;SDS011;9309;52.126;11.616;2023-04-23T07:43:28;57.33;;;28.43;;
18364;SDS011;9309;52.126;11.616;2023-04-23T07:45:55;57.80;;;28.37;;
18364;SDS011;9309;52.126;11.616;2023-04-23T07:48:21;53.93;;;26.87;;
18364;SDS011;9309;52.126;11.616;2023-04-23T07:50:48;57.83;;;29.37;;
18364;SDS011;9309;52.126;11.616;2023-04-23T07:53:15;55.17;;;27.83;;
18364;SDS011;9309;52.126;11.616;2023-04-23T07:55:42;54.33;;;27.87;;
18364;SDS011;9309;52.126;11.616;2023-04-23T07:58:08;53.50;;;28.50;;
18364;SDS011;9309;52.126;11.616;2023-04-23T08:00:36;56.60;;;29.00;;
18364;SDS011;9309;52.126;11.616;2023-04-23T08:03:03;57.70;;;28.20;;
18364;SDS011;9309;52.126;11.616;2023-04-23T08:05:30;51.73;;;28.03;;
18364;SDS011;9309;52.126;11.616;2023-04-23T08:07:56;54.70;;;28.47;;
18364;SDS011;9309;52.126;11.616;2023-04-23T08:10:23;55.23;;;27.80;;
18364;SDS011;9309;52.126;11.616;2023-04-23T08:12:50;52.17;;;27.27;;
18364;SDS011;9309;52.126;11.616;2023-04-23T08:15:16;52.33;;;28.70;;
18364;SDS011;9309;52.126;11.616;2023-04-23T08:17:47;63.17;;;29.53;;
18364;SDS011;9309;52.126;11.616;2023-04-23T08:20:13;51.13;;;27.17;;
18364;SDS011;9309;52.126;11.616;2023-04-23T08:22:40;49.70;;;26.13;;
18364;SDS011;9309;52.126;11.616;2023-04-23T08:25:07;49.33;;;26.03;;
18364;SDS011;9309;52.126;11.616;2023-04-23T08:27:34;47.80;;;25.37;;
18364;SDS011;9309;52.126;11.616;2023-04-23T08:30:02;48.17;;;26.10;;
18364;SDS011;9309;52.126;11.616;2023-04-23T08:32:29;47.80;;;25.97;;
18364;SDS011;9309;52.126;11.616;2023-04-23T08:34:57;42.60;;;24.33;;
18364;SDS011;9309;52.126;11.616;2023-04-23T08:37:23;40.57;;;22.70;;
18364;SDS011;9309;52.126;11.616;2023-04-23T08:39:50;42.20;;;22.77;;
18364;SDS011;9309;52.126;11.616;2023-04-23T08:42:17;40.33;;;22.53;;
18364;SDS011;9309;52.126;11.616;2023-04-23T08:44:51;37.20;;;19.93;;
18364;SDS011;9309;52.126;11.616;2023-04-23T08:47:20;41.33;;;22.13;;
18364;SDS011;9309;52.126;11.616;2023-04-23T08:49:51;37.97;;;21.37;;
18364;SDS011;9309;52.126;11.616;2023-04-23T08:52:23;38.57;;;22.13;;
18364;SDS011;9309;52.126;11.616;2023-04-23T08:54:51;33.87;;;19.80;;
18364;SDS011;9309;52.126;11.616;2023-04-23T08:57:19;32.43;;;19.40;;
18364;SDS011;9309;52.126;11.616;2023-04-23T08:59:46;31.23;;;18.23;;
18364;SDS011;9309;52.126;11.616;2023-04-23T09:02:12;32.00;;;19.13;;
18364;SDS011;9309;52.126;11.616;2023-04-23T09:04:41;30.13;;;17.37;;
18364;SDS011;9309;52.126;11.616;2023-04-23T09:07:07;28.43;;;15.87;;
18364;SDS011;9309;52.126;11.616;2023-04-23T09:09:37;28.63;;;17.63;;
18364;SDS011;9309;52.126;11.616;2023-04-23T09:12:05;31.10;;;17.40;;
18364;SDS011;9309;52.126;11.616;2023-04-23T09:14:32;28.47;;;16.63;;
18364;SDS011;9309;52.126;11.616;2023-04-23T09:17:00;27.97;;;16.93;;
18364;SDS011;9309;52.126;11.616;2023-04-23T09:19:27;24.97;;;15.60;;
18364;SDS011;9309;52.126;11.616;2023-04-23T09:21:54;24.67;;;15.57;;
18364;SDS011;9309;52.126;11.616;2023-04-23T09:24:23;21.80;;;14.33;;
18364;SDS011;9309;52.126;11.616;2023-04-23T09:26:51;21.93;;;14.50;;
18364;SDS011;9309;52.126;11.616;2023-04-23T09:29:19;23.90;;;13.90;;
18364;SDS011;9309;52.126;11.616;2023-04-23T09:31:47;23.83;;;13.87;;
18364;SDS011;9309;52.126;11.616;2023-04-23T09:34:15;21.73;;;13.27;;
18364;SDS011;9309;52.126;11.616;2023-04-23T09:36:43;17.73;;;12.33;;
18364;SDS011;9309;52.126;11.616;2023-04-23T09:39:10;17.23;;;11.50;;
18364;SDS011;9309;52.126;11.616;2023-04-23T09:41:38;17.83;;;11.80;;
18364;SDS011;9309;52.126;11.616;2023-04-23T09:44:06;17.57;;;11.40;;
18364;SDS011;9309;52.126;11.616;2023-04-23T09:46:34;16.20;;;11.77;;
18364;SDS011;9309;52.126;11.616;2023-04-23T09:49:02;18.67;;;12.43;;
18364;SDS011;9309;52.126;11.616;2023-04-23T09:51:31;14.27;;;9.93;;
18364;SDS011;9309;52.126;11.616;2023-04-23T09:54:00;14.07;;;10.47;;
18364;SDS011;9309;52.126;11.616;2023-04-23T09:56:28;14.82;;;10.18;;
18364;SDS011;9309;52.126;11.616;2023-04-23T09:58:55;17.80;;;10.50;;
18364;SDS011;9309;52.126;11.616;2023-04-23T10:01:27;14.70;;;10.75;;
18364;SDS011;9309;52.126;11.616;2023-04-23T10:03:54;14.43;;;11.07;;
18364;SDS011;9309;52.126;11.616;2023-04-23T10:06:28;14.68;;;9.55;;
18364;SDS011;9309;52.126;11.616;2023-04-23T10:08:56;16.85;;;10.13;;
18364;SDS011;9309;52.126;11.616;2023-04-23T10:11:23;12.77;;;9.63;;
18364;SDS011;9309;52.126;11.616;2023-04-23T10:13:50;11.85;;;9.10;;
18364;SDS011;9309;52.126;11.616;2023-04-23T10:16:20;11.95;;;9.30;;
18364;SDS011;9309;52.126;11.616;2023-04-23T10:18:48;12.27;;;9.45;;
18364;SDS011;9309;52.126;11.616;2023-04-23T10:21:16;13.88;;;9.95;;
18364;SDS011;9309;52.126;11.616;2023-04-23T10:23:44;15.55;;;10.20;;
18364;SDS011;9309;52.126;11.616;2023-04-23T10:26:14;12.32;;;10.18;;
18364;SDS011;9309;52.126;11.616;2023-04-23T10:28:42;12.52;;;9.88;;
18364;SDS011;9309;52.126;11.616;2023-04-23T10:31:11;16.27;;;11.40;;
18364;SDS011;9309;52.126;11.616;2023-04-23T10:33:38;15.98;;;11.38;;
18364;SDS011;9309;52.126;11.616;2023-04-23T10:36:09;16.92;;;11.95;;
18364;SDS011;9309;52.126;11.616;2023-04-23T10:38:36;15.40;;;11.23;;
18364;SDS011;9309;52.126;11.616;2023-04-23T10:41:05;16.52;;;11.43;;
18364;SDS011;9309;52.126;11.616;2023-04-23T10:43:33;15.60;;;12.30;;
18364;SDS011;9309;52.126;11.616;2023-04-23T10:46:00;15.07;;;10.40;;
18364;SDS011;9309;52.126;11.616;2023-04-23T10:48:27;15.93;;;11.40;;
18364;SDS011;9309;52.126;11.616;2023-04-23T10:50:57;15.38;;;11.20;;
18364;SDS011;9309;52.126;11.616;2023-04-23T10:53:26;15.95;;;11.88;;
18364;SDS011;9309;52.126;11.616;2023-04-23T10:56:03;14.77;;;10.95;;
18364;SDS011;9309;52.126;11.616;2023-04-23T10:58:46;15.32;;;12.18;;
18364;SDS011;9309;52.126;11.616;2023-04-23T11:01:15;14.13;;;11.32;;
18364;SDS011;9309;52.126;11.616;2023-04-23T11:03:42;14.00;;;11.40;;
18364;SDS011;9309;52.126;11.616;2023-04-23T11:06:11;14.02;;;10.82;;
18364;SDS011;9309;52.126;11.616;2023-04-23T11:08:46;11.15;;;9.23;;
18364;SDS011;9309;52.126;11.616;2023-04-23T11:11:16;13.80;;;9.88;;
18364;SDS011;9309;52.126;11.616;2023-04-23T11:13:49;10.85;;;8.85;;
18364;SDS011;9309;52.126;11.616;2023-04-23T11:16:19;12.70;;;9.70;;
18364;SDS011;9309;52.126;11.616;2023-04-23T11:18:54;13.57;;;9.95;;
18364;SDS011;9309;52.126;11.616;2023-04-23T11:24:23;10.55;;;7.95;;
18364;SDS011;9309;52.126;11.616;2023-04-23T11:26:52;9.13;;;7.53;;
18364;SDS011;9309;52.126;11.616;2023-04-23T11:29:19;10.27;;;7.72;;
18364;SDS011;9309;52.126;11.616;2023-04-23T11:31:47;9.25;;;7.75;;
18364;SDS011;9309;52.126;11.616;2023-04-23T11:34:15;8.07;;;6.50;;
18364;SDS011;9309;52.126;11.616;2023-04-23T11:36:42;6.43;;;5.82;;
18364;SDS011;9309;52.126;11.616;2023-04-23T11:39:09;6.80;;;6.03;;
18364;SDS011;9309;52.126;11.616;2023-04-23T11:41:37;8.40;;;7.10;;
18364;SDS011;9309;52.126;11.616;2023-04-23T11:44:04;8.05;;;6.50;;
18364;SDS011;9309;52.126;11.616;2023-04-23T11:46:32;6.97;;;6.35;;
18364;SDS011;9309;52.126;11.616;2023-04-23T11:48:59;7.75;;;6.95;;
18364;SDS011;9309;52.126;11.616;2023-04-23T11:51:26;6.60;;;6.00;;
18364;SDS011;9309;52.126;11.616;2023-04-23T11:53:53;6.60;;;5.85;;
18364;SDS011;9309;52.126;11.616;2023-04-23T11:56:19;5.13;;;4.63;;
18364;SDS011;9309;52.126;11.616;2023-04-23T11:58:49;5.32;;;4.82;;
18364;SDS011;9309;52.126;11.616;2023-04-23T12:01:24;6.25;;;4.68;;
18364;SDS011;9309;52.126;11.616;2023-04-23T12:03:50;5.43;;;4.93;;
18364;SDS011;9309;52.126;11.616;2023-04-23T12:06:17;7.45;;;5.90;;
18364;SDS011;9309;52.126;11.616;2023-04-23T12:08:45;5.63;;;5.13;;
18364;SDS011;9309;52.126;11.616;2023-04-23T12:11:12;7.80;;;6.07;;
18364;SDS011;9309;52.126;11.616;2023-04-23T12:13:39;8.73;;;6.15;;
18364;SDS011;9309;52.126;11.616;2023-04-23T12:16:08;7.53;;;5.78;;
18364;SDS011;9309;52.126;11.616;2023-04-23T12:18:38;6.03;;;5.43;;
18364;SDS011;9309;52.126;11.616;2023-04-23T12:21:06;5.45;;;4.28;;
18364;SDS011;9309;52.126;11.616;2023-04-23T12:23:34;4.05;;;3.75;;
18364;SDS011;9309;52.126;11.616;2023-04-23T12:26:02;4.28;;;3.97;;
18364;SDS011;9309;52.126;11.616;2023-04-23T12:28:30;6.32;;;4.22;;
18364;SDS011;9309;52.126;11.616;2023-04-23T12:30:58;4.93;;;4.45;;
18364;SDS011;9309;52.126;11.616;2023-04-23T12:33:28;3.88;;;3.58;;
18364;SDS011;9309;52.126;11.616;2023-04-23T12:35:56;3.42;;;3.22;;
18364;SDS011;9309;52.126;11.616;2023-04-23T12:38:24;3.65;;;3.30;;
18364;SDS011;9309;52.126;11.616;2023-04-23T12:40:53;3.00;;;2.90;;
18364;SDS011;9309;52.126;11.616;2023-04-23T12:43:20;4.80;;;3.55;;
18364;SDS011;9309;52.126;11.616;2023-04-23T12:45:47;3.85;;;3.55;;
18364;SDS011;9309;52.126;11.616;2023-04-23T12:48:15;3.88;;;3.60;;
18364;SDS011;9309;52.126;11.616;2023-04-23T12:50:43;4.53;;;4.00;;
18364;SDS011;9309;52.126;11.616;2023-04-23T12:53:10;4.40;;;4.10;;
18364;SDS011;9309;52.126;11.616;2023-04-23T12:55:37;4.28;;;3.90;;
18364;SDS011;9309;52.126;11.616;2023-04-23T12:58:04;5.32;;;4.00;;
18364;SDS011;9309;52.126;11.616;2023-04-23T13:00:31;3.28;;;3.10;;
18364;SDS011;9309;52.126;11.616;2023-04-23T13:02:58;4.25;;;2.70;;
18364;SDS011;9309;52.126;11.616;2023-04-23T13:05:24;2.20;;;2.20;;
18364;SDS011;9309;52.126;11.616;2023-04-23T13:07:52;2.60;;;2.50;;
18364;SDS011;9309;52.126;11.616;2023-04-23T13:10:19;2.95;;;2.85;;
18364;SDS011;9309;52.126;11.616;2023-04-23T13:12:46;2.55;;;2.45;;
18364;SDS011;9309;52.126;11.616;2023-04-23T13:15:12;2.47;;;2.38;;
18364;SDS011;9309;52.126;11.616;2023-04-23T13:17:39;3.20;;;3.00;;
18364;SDS011;9309;52.126;11.616;2023-04-23T13:20:06;2.92;;;2.80;;
18364;SDS011;9309;52.126;11.616;2023-04-23T13:22:33;3.00;;;2.65;;
18364;SDS011;9309;52.126;11.616;2023-04-23T13:25:01;3.25;;;2.95;;
18364;SDS011;9309;52.126;11.616;2023-04-23T13:27:29;3.58;;;2.65;;
18364;SDS011;9309;52.126;11.616;2023-04-23T13:29:55;2.80;;;2.63;;
18364;SDS011;9309;52.126;11.616;2023-04-23T13:32:22;3.08;;;2.53;;
18364;SDS011;9309;52.126;11.616;2023-04-23T13:34:51;2.83;;;2.67;;
18364;SDS011;9309;52.126;11.616;2023-04-23T13:37:17;2.90;;;2.70;;
18364;SDS011;9309;52.126;11.616;2023-04-23T13:39:44;2.88;;;2.67;;
18364;SDS011;9309;52.126;11.616;2023-04-23T13:42:12;2.67;;;2.47;;
18364;SDS011;9309;52.126;11.616;2023-04-23T13:44:39;2.33;;;2.22;;
18364;SDS011;9309;52.126;11.616;2023-04-23T13:47:05;2.88;;;2.78;;
18364;SDS011;9309;52.126;11.616;2023-04-23T13:49:32;2.55;;;2.45;;
18364;SDS011;9309;52.126;11.616;2023-04-23T13:51:59;2.60;;;2.50;;
18364;SDS011;9309;52.126;11.616;2023-04-23T13:54:30;2.58;;;2.35;;
18364;SDS011;9309;52.126;11.616;2023-04-23T13:56:57;2.35;;;2.13;;
18364;SDS011;9309;52.126;11.616;2023-04-23T13:59:25;2.05;;;1.80;;
18364;SDS011;9309;52.126;11.616;2023-04-23T14:01:52;2.45;;;2.10;;
18364;SDS011;9309;52.126;11.616;2023-04-23T14:04:19;2.30;;;2.13;;
18364;SDS011;9309;52.126;11.616;2023-04-23T14:06:47;2.78;;;2.60;;
18364;SDS011;9309;52.126;11.616;2023-04-23T14:09:14;2.20;;;2.10;;
18364;SDS011;9309;52.126;11.616;2023-04-23T14:11:41;2.15;;;2.05;;
18364;SDS011;9309;52.126;11.616;2023-04-23T14:14:08;2.22;;;2.13;;
18364;SDS011;9309;52.126;11.616;2023-04-23T14:16:36;2.70;;;2.50;;
18364;SDS011;9309;52.126;11.616;2023-04-23T14:19:02;2.30;;;2.20;;
18364;SDS011;9309;52.126;11.616;2023-04-23T14:21:29;2.75;;;2.58;;
18364;SDS011;9309;52.126;11.616;2023-04-23T14:23:59;1.75;;;1.75;;
18364;SDS011;9309;52.126;11.616;2023-04-23T14:26:31;1.90;;;1.90;;
18364;SDS011;9309;52.126;11.616;2023-04-23T14:29:03;1.80;;;1.80;;
18364;SDS011;9309;52.126;11.616;2023-04-23T14:31:36;2.10;;;2.00;;
18364;SDS011;9309;52.126;11.616;2023-04-23T14:34:03;2.40;;;2.22;;
18364;SDS011;9309;52.126;11.616;2023-04-23T14:36:30;2.33;;;2.22;;
18364;SDS011;9309;52.126;11.616;2023-04-23T14:38:57;2.22;;;2.13;;